sensor_id;sensor_type;location;lat;lon;timestamp;P1;durP1;ratioP1;P2;durP2;ratioP2
25069;SDS011;13064;48.162;11.536;2023-08-24T00:00:29;10.55;;;5.97;;
25069;SDS011;13064;48.162;11.536;2023-08-24T00:02:57;9.27;;;5.68;;
25069;SDS011;13064;48.162;11.536;2023-08-24T00:05:25;8.15;;;5.22;;
25069;SDS011;13064;48.162;11.536;2023-08-24T00:07:52;9.07;;;5.28;;
25069;SDS011;13064;48.162;11.536;2023-08-24T00:10:20;9.55;;;6.00;;
25069;SDS011;13064;48.162;11.536;2023-08-24T00:12:47;8.98;;;5.60;;
25069;SDS011;13064;48.162;11.536;2023-08-24T00:15:15;7.07;;;5.60;;
25069;SDS011;13064;48.162;11.536;2023-08-24T00:17:43;6.05;;;5.35;;
25069;SDS011;13064;48.162;11.536;2023-08-24T00:20:11;8.55;;;6.00;;
25069;SDS011;13064;48.162;11.536;2023-08-24T00:22:38;6.97;;;5.95;;
25069;SDS011;13064;48.162;11.536;2023-08-24T00:25:06;9.07;;;5.90;;
25069;SDS011;13064;48.162;11.536;2023-08-24T00:27:35;9.48;;;5.10;;
25069;SDS011;13064;48.162;11.536;2023-08-24T00:30:03;9.88;;;5.80;;
25069;SDS011;13064;48.162;11.536;2023-08-24T00:32:33;10.02;;;5.60;;
25069;SDS011;13064;48.162;11.536;2023-08-24T00:35:04;7.15;;;5.60;;
25069;SDS011;13064;48.162;11.536;2023-08-24T00:40:02;7.60;;;5.43;;
25069;SDS011;13064;48.162;11.536;2023-08-24T00:42:39;6.60;;;5.85;;
25069;SDS011;13064;48.162;11.536;2023-08-24T00:47:36;7.63;;;5.68;;
25069;SDS011;13064;48.162;11.536;2023-08-24T00:50:04;9.82;;;5.60;;
25069;SDS011;13064;48.162;11.536;2023-08-24T00:52:32;7.28;;;5.35;;
25069;SDS011;13064;48.162;11.536;2023-08-24T00:55:00;8.32;;;5.70;;
25069;SDS011;13064;48.162;11.536;2023-08-24T00:57:28;7.85;;;4.93;;
25069;SDS011;13064;48.162;11.536;2023-08-24T00:59:56;7.65;;;4.97;;
25069;SDS011;13064;48.162;11.536;2023-08-24T01:02:24;7.25;;;5.30;;
25069;SDS011;13064;48.162;11.536;2023-08-24T01:04:52;7.25;;;5.38;;
25069;SDS011;13064;48.162;11.536;2023-08-24T01:07:20;6.35;;;5.13;;
25069;SDS011;13064;48.162;11.536;2023-08-24T01:09:48;7.18;;;5.35;;
25069;SDS011;13064;48.162;11.536;2023-08-24T01:17:27;6.22;;;5.28;;
25069;SDS011;13064;48.162;11.536;2023-08-24T01:19:56;6.35;;;5.18;;
25069;SDS011;13064;48.162;11.536;2023-08-24T01:28:02;11.95;;;5.57;;
25069;SDS011;13064;48.162;11.536;2023-08-24T01:30:31;9.75;;;5.53;;
25069;SDS011;13064;48.162;11.536;2023-08-24T01:32:58;7.45;;;5.72;;
25069;SDS011;13064;48.162;11.536;2023-08-24T01:35:27;6.22;;;5.30;;
25069;SDS011;13064;48.162;11.536;2023-08-24T01:37:55;8.55;;;5.82;;
25069;SDS011;13064;48.162;11.536;2023-08-24T01:40:36;9.70;;;5.05;;
25069;SDS011;13064;48.162;11.536;2023-08-24T01:43:07;7.75;;;5.70;;
25069;SDS011;13064;48.162;11.536;2023-08-24T01:45:37;11.43;;;5.72;;
25069;SDS011;13064;48.162;11.536;2023-08-24T01:48:07;6.82;;;5.15;;
25069;SDS011;13064;48.162;11.536;2023-08-24T01:50:37;8.02;;;5.45;;
25069;SDS011;13064;48.162;11.536;2023-08-24T01:53:05;6.80;;;5.35;;
25069;SDS011;13064;48.162;11.536;2023-08-24T01:55:33;7.82;;;5.82;;
25069;SDS011;13064;48.162;11.536;2023-08-24T01:58:00;5.43;;;4.88;;
25069;SDS011;13064;48.162;11.536;2023-08-24T02:00:29;6.72;;;5.78;;
25069;SDS011;13064;48.162;11.536;2023-08-24T02:02:56;7.90;;;5.65;;
25069;SDS011;13064;48.162;11.536;2023-08-24T02:05:24;8.35;;;5.15;;
25069;SDS011;13064;48.162;11.536;2023-08-24T02:07:54;8.23;;;5.68;;
25069;SDS011;13064;48.162;11.536;2023-08-24T02:10:23;10.43;;;6.38;;
25069;SDS011;13064;48.162;11.536;2023-08-24T02:12:51;6.82;;;5.75;;
25069;SDS011;13064;48.162;11.536;2023-08-24T02:15:19;9.48;;;6.18;;
25069;SDS011;13064;48.162;11.536;2023-08-24T02:17:46;8.32;;;6.00;;
25069;SDS011;13064;48.162;11.536;2023-08-24T02:20:14;8.05;;;5.47;;
25069;SDS011;13064;48.162;11.536;2023-08-24T02:22:42;7.82;;;5.70;;
25069;SDS011;13064;48.162;11.536;2023-08-24T02:25:10;9.52;;;6.78;;
25069;SDS011;13064;48.162;11.536;2023-08-24T02:27:37;6.47;;;5.57;;
25069;SDS011;13064;48.162;11.536;2023-08-24T02:30:05;8.18;;;6.22;;
25069;SDS011;13064;48.162;11.536;2023-08-24T02:32:33;8.80;;;6.13;;
25069;SDS011;13064;48.162;11.536;2023-08-24T02:35:01;10.30;;;6.10;;
25069;SDS011;13064;48.162;11.536;2023-08-24T02:37:30;6.65;;;5.35;;
25069;SDS011;13064;48.162;11.536;2023-08-24T02:39:57;8.85;;;6.30;;
25069;SDS011;13064;48.162;11.536;2023-08-24T02:42:25;7.32;;;6.00;;
25069;SDS011;13064;48.162;11.536;2023-08-24T02:44:53;7.88;;;5.93;;
25069;SDS011;13064;48.162;11.536;2023-08-24T02:47:21;8.55;;;5.88;;
25069;SDS011;13064;48.162;11.536;2023-08-24T02:49:49;7.00;;;6.30;;
25069;SDS011;13064;48.162;11.536;2023-08-24T02:52:16;7.00;;;6.05;;
25069;SDS011;13064;48.162;11.536;2023-08-24T02:54:44;9.98;;;6.85;;
25069;SDS011;13064;48.162;11.536;2023-08-24T02:57:12;7.72;;;6.20;;
25069;SDS011;13064;48.162;11.536;2023-08-24T02:59:39;9.73;;;6.60;;
25069;SDS011;13064;48.162;11.536;2023-08-24T03:02:10;7.45;;;5.82;;
25069;SDS011;13064;48.162;11.536;2023-08-24T03:04:39;11.23;;;6.38;;
25069;SDS011;13064;48.162;11.536;2023-08-24T03:07:07;9.68;;;6.40;;
25069;SDS011;13064;48.162;11.536;2023-08-24T03:09:37;8.23;;;6.28;;
25069;SDS011;13064;48.162;11.536;2023-08-24T03:12:04;10.00;;;7.05;;
25069;SDS011;13064;48.162;11.536;2023-08-24T03:14:32;7.43;;;6.13;;
25069;SDS011;13064;48.162;11.536;2023-08-24T03:17:00;8.27;;;6.85;;
25069;SDS011;13064;48.162;11.536;2023-08-24T03:19:29;7.32;;;6.30;;
25069;SDS011;13064;48.162;11.536;2023-08-24T03:21:56;7.57;;;6.10;;
25069;SDS011;13064;48.162;11.536;2023-08-24T03:24:24;9.48;;;6.53;;
25069;SDS011;13064;48.162;11.536;2023-08-24T03:26:53;10.43;;;6.70;;
25069;SDS011;13064;48.162;11.536;2023-08-24T03:29:20;7.10;;;6.38;;
25069;SDS011;13064;48.162;11.536;2023-08-24T03:31:48;8.40;;;6.65;;
25069;SDS011;13064;48.162;11.536;2023-08-24T03:34:15;10.63;;;6.65;;
25069;SDS011;13064;48.162;11.536;2023-08-24T03:36:43;10.57;;;6.47;;
25069;SDS011;13064;48.162;11.536;2023-08-24T03:39:11;8.77;;;6.18;;
25069;SDS011;13064;48.162;11.536;2023-08-24T03:41:39;9.45;;;6.65;;
25069;SDS011;13064;48.162;11.536;2023-08-24T03:44:06;9.20;;;6.47;;
25069;SDS011;13064;48.162;11.536;2023-08-24T03:46:34;7.85;;;6.10;;
25069;SDS011;13064;48.162;11.536;2023-08-24T03:49:02;7.40;;;6.25;;
25069;SDS011;13064;48.162;11.536;2023-08-24T03:51:30;10.48;;;6.57;;
25069;SDS011;13064;48.162;11.536;2023-08-24T03:53:58;10.45;;;6.75;;
25069;SDS011;13064;48.162;11.536;2023-08-24T03:56:26;7.38;;;6.57;;
25069;SDS011;13064;48.162;11.536;2023-08-24T03:58:54;7.40;;;6.22;;
25069;SDS011;13064;48.162;11.536;2023-08-24T04:01:22;10.82;;;6.57;;
25069;SDS011;13064;48.162;11.536;2023-08-24T04:03:49;10.02;;;6.38;;
25069;SDS011;13064;48.162;11.536;2023-08-24T04:06:18;10.48;;;6.35;;
25069;SDS011;13064;48.162;11.536;2023-08-24T04:16:19;9.40;;;6.55;;
25069;SDS011;13064;48.162;11.536;2023-08-24T04:18:47;7.68;;;6.47;;
25069;SDS011;13064;48.162;11.536;2023-08-24T04:21:20;9.10;;;6.40;;
25069;SDS011;13064;48.162;11.536;2023-08-24T04:23:48;9.48;;;5.60;;
25069;SDS011;13064;48.162;11.536;2023-08-24T04:26:16;8.15;;;6.18;;
25069;SDS011;13064;48.162;11.536;2023-08-24T04:32:37;8.82;;;6.78;;
25069;SDS011;13064;48.162;11.536;2023-08-24T04:39:06;10.20;;;6.65;;
25069;SDS011;13064;48.162;11.536;2023-08-24T04:44:50;8.55;;;6.50;;
25069;SDS011;13064;48.162;11.536;2023-08-24T04:47:18;9.23;;;6.90;;
25069;SDS011;13064;48.162;11.536;2023-08-24T04:53:41;12.25;;;7.32;;
25069;SDS011;13064;48.162;11.536;2023-08-24T04:56:09;10.73;;;6.68;;
25069;SDS011;13064;48.162;11.536;2023-08-24T04:58:36;9.93;;;6.70;;
25069;SDS011;13064;48.162;11.536;2023-08-24T05:01:04;11.13;;;7.30;;
25069;SDS011;13064;48.162;11.536;2023-08-24T05:03:32;9.52;;;7.28;;
25069;SDS011;13064;48.162;11.536;2023-08-24T05:05:59;12.77;;;7.28;;
25069;SDS011;13064;48.162;11.536;2023-08-24T05:08:27;11.18;;;7.90;;
25069;SDS011;13064;48.162;11.536;2023-08-24T05:10:55;10.10;;;8.18;;
25069;SDS011;13064;48.162;11.536;2023-08-24T05:13:22;11.55;;;7.90;;
25069;SDS011;13064;48.162;11.536;2023-08-24T05:15:50;8.45;;;6.78;;
25069;SDS011;13064;48.162;11.536;2023-08-24T05:18:22;7.95;;;7.15;;
25069;SDS011;13064;48.162;11.536;2023-08-24T05:20:50;8.10;;;6.82;;
25069;SDS011;13064;48.162;11.536;2023-08-24T05:23:17;9.13;;;8.23;;
25069;SDS011;13064;48.162;11.536;2023-08-24T05:25:45;15.23;;;7.60;;
25069;SDS011;13064;48.162;11.536;2023-08-24T05:28:13;54.35;;;9.90;;
25069;SDS011;13064;48.162;11.536;2023-08-24T05:30:40;15.50;;;7.72;;
25069;SDS011;13064;48.162;11.536;2023-08-24T05:33:08;66.07;;;10.18;;
25069;SDS011;13064;48.162;11.536;2023-08-24T05:39:06;11.93;;;7.57;;
25069;SDS011;13064;48.162;11.536;2023-08-24T05:41:33;10.48;;;7.75;;
25069;SDS011;13064;48.162;11.536;2023-08-24T05:49:43;11.80;;;9.02;;
25069;SDS011;13064;48.162;11.536;2023-08-24T05:59:01;13.63;;;9.38;;
25069;SDS011;13064;48.162;11.536;2023-08-24T06:01:32;13.02;;;9.70;;
25069;SDS011;13064;48.162;11.536;2023-08-24T06:04:02;13.85;;;9.50;;
25069;SDS011;13064;48.162;11.536;2023-08-24T06:06:30;13.10;;;10.57;;
25069;SDS011;13064;48.162;11.536;2023-08-24T06:08:59;14.80;;;9.73;;
25069;SDS011;13064;48.162;11.536;2023-08-24T06:14:39;13.63;;;9.30;;
25069;SDS011;13064;48.162;11.536;2023-08-24T06:17:06;16.10;;;10.20;;
25069;SDS011;13064;48.162;11.536;2023-08-24T06:19:34;11.43;;;9.45;;
25069;SDS011;13064;48.162;11.536;2023-08-24T06:22:02;11.80;;;9.05;;
25069;SDS011;13064;48.162;11.536;2023-08-24T06:24:30;12.93;;;10.20;;
25069;SDS011;13064;48.162;11.536;2023-08-24T06:26:57;13.13;;;9.40;;
25069;SDS011;13064;48.162;11.536;2023-08-24T06:29:25;16.02;;;10.02;;
25069;SDS011;13064;48.162;11.536;2023-08-24T06:31:52;14.32;;;9.60;;
25069;SDS011;13064;48.162;11.536;2023-08-24T06:34:20;17.45;;;10.52;;
25069;SDS011;13064;48.162;11.536;2023-08-24T06:36:49;13.30;;;9.80;;
25069;SDS011;13064;48.162;11.536;2023-08-24T06:39:17;12.88;;;9.07;;
25069;SDS011;13064;48.162;11.536;2023-08-24T06:41:46;12.70;;;9.27;;
25069;SDS011;13064;48.162;11.536;2023-08-24T06:44:19;19.45;;;8.93;;
25069;SDS011;13064;48.162;11.536;2023-08-24T06:46:52;10.77;;;8.30;;
25069;SDS011;13064;48.162;11.536;2023-08-24T06:49:19;13.57;;;8.02;;
25069;SDS011;13064;48.162;11.536;2023-08-24T06:51:47;12.20;;;7.80;;
25069;SDS011;13064;48.162;11.536;2023-08-24T06:54:15;9.80;;;7.80;;
25069;SDS011;13064;48.162;11.536;2023-08-24T06:56:42;13.35;;;7.40;;
25069;SDS011;13064;48.162;11.536;2023-08-24T06:59:10;11.63;;;7.63;;
25069;SDS011;13064;48.162;11.536;2023-08-24T07:04:51;11.63;;;7.23;;
25069;SDS011;13064;48.162;11.536;2023-08-24T07:07:18;9.65;;;6.93;;
25069;SDS011;13064;48.162;11.536;2023-08-24T07:09:46;9.15;;;6.43;;
25069;SDS011;13064;48.162;11.536;2023-08-24T07:12:13;12.63;;;7.25;;
25069;SDS011;13064;48.162;11.536;2023-08-24T07:14:41;9.15;;;6.28;;
25069;SDS011;13064;48.162;11.536;2023-08-24T07:21:12;11.25;;;7.00;;
25069;SDS011;13064;48.162;11.536;2023-08-24T07:27:35;7.10;;;6.35;;
25069;SDS011;13064;48.162;11.536;2023-08-24T07:33:56;11.35;;;6.88;;
25069;SDS011;13064;48.162;11.536;2023-08-24T07:39:41;10.95;;;6.72;;
25069;SDS011;13064;48.162;11.536;2023-08-24T07:42:08;9.80;;;6.50;;
25069;SDS011;13064;48.162;11.536;2023-08-24T07:47:48;9.63;;;6.70;;
25069;SDS011;13064;48.162;11.536;2023-08-24T07:50:16;10.57;;;7.13;;
25069;SDS011;13064;48.162;11.536;2023-08-24T07:56:45;8.30;;;6.78;;
25069;SDS011;13064;48.162;11.536;2023-08-24T08:02:51;13.50;;;7.18;;
25069;SDS011;13064;48.162;11.536;2023-08-24T08:05:18;8.10;;;6.90;;
25069;SDS011;13064;48.162;11.536;2023-08-24T08:11:49;10.82;;;7.15;;
25069;SDS011;13064;48.162;11.536;2023-08-24T08:18:17;9.98;;;6.50;;
25069;SDS011;13064;48.162;11.536;2023-08-24T08:20:45;11.82;;;6.97;;
25069;SDS011;13064;48.162;11.536;2023-08-24T08:23:13;9.40;;;6.55;;
25069;SDS011;13064;48.162;11.536;2023-08-24T08:25:40;10.20;;;6.78;;
25069;SDS011;13064;48.162;11.536;2023-08-24T08:30:51;9.02;;;6.38;;
25069;SDS011;13064;48.162;11.536;2023-08-24T08:33:19;10.25;;;6.88;;
25069;SDS011;13064;48.162;11.536;2023-08-24T08:38:41;11.20;;;6.82;;
25069;SDS011;13064;48.162;11.536;2023-08-24T08:41:09;9.80;;;6.38;;
25069;SDS011;13064;48.162;11.536;2023-08-24T08:43:37;11.02;;;6.35;;
25069;SDS011;13064;48.162;11.536;2023-08-24T08:46:06;8.40;;;6.97;;
25069;SDS011;13064;48.162;11.536;2023-08-24T08:48:33;10.07;;;6.68;;
25069;SDS011;13064;48.162;11.536;2023-08-24T08:53:55;10.75;;;6.10;;
25069;SDS011;13064;48.162;11.536;2023-08-24T08:56:22;11.85;;;5.90;;
25069;SDS011;13064;48.162;11.536;2023-08-24T09:01:44;7.60;;;6.15;;
25069;SDS011;13064;48.162;11.536;2023-08-24T09:04:12;10.85;;;6.25;;
25069;SDS011;13064;48.162;11.536;2023-08-24T09:06:40;10.18;;;6.20;;
25069;SDS011;13064;48.162;11.536;2023-08-24T09:09:08;10.60;;;7.05;;
25069;SDS011;13064;48.162;11.536;2023-08-24T09:11:37;8.15;;;6.05;;
25069;SDS011;13064;48.162;11.536;2023-08-24T09:14:08;9.43;;;6.40;;
25069;SDS011;13064;48.162;11.536;2023-08-24T09:16:35;8.80;;;6.32;;
25069;SDS011;13064;48.162;11.536;2023-08-24T09:23:04;9.55;;;6.47;;
25069;SDS011;13064;48.162;11.536;2023-08-24T09:29:36;9.10;;;6.80;;
25069;SDS011;13064;48.162;11.536;2023-08-24T09:32:07;13.18;;;6.32;;
25069;SDS011;13064;48.162;11.536;2023-08-24T09:34:35;10.10;;;6.20;;
25069;SDS011;13064;48.162;11.536;2023-08-24T09:37:04;12.10;;;7.07;;
25069;SDS011;13064;48.162;11.536;2023-08-24T09:39:32;9.85;;;6.32;;
25069;SDS011;13064;48.162;11.536;2023-08-24T09:42:00;8.98;;;6.07;;
25069;SDS011;13064;48.162;11.536;2023-08-24T09:44:33;9.02;;;5.97;;
25069;SDS011;13064;48.162;11.536;2023-08-24T09:47:01;11.80;;;6.50;;
25069;SDS011;13064;48.162;11.536;2023-08-24T09:49:28;14.02;;;6.43;;
25069;SDS011;13064;48.162;11.536;2023-08-24T09:51:56;9.55;;;6.00;;
25069;SDS011;13064;48.162;11.536;2023-08-24T09:54:26;9.68;;;5.95;;
25069;SDS011;13064;48.162;11.536;2023-08-24T09:56:55;10.15;;;5.03;;
25069;SDS011;13064;48.162;11.536;2023-08-24T09:59:23;12.43;;;5.97;;
25069;SDS011;13064;48.162;11.536;2023-08-24T10:04:24;11.73;;;6.05;;
25069;SDS011;13064;48.162;11.536;2023-08-24T10:06:59;8.52;;;5.75;;
25069;SDS011;13064;48.162;11.536;2023-08-24T10:09:31;8.65;;;5.43;;
25069;SDS011;13064;48.162;11.536;2023-08-24T10:12:00;10.05;;;5.55;;
25069;SDS011;13064;48.162;11.536;2023-08-24T10:17:01;12.07;;;6.07;;
25069;SDS011;13064;48.162;11.536;2023-08-24T10:19:29;8.48;;;5.50;;
25069;SDS011;13064;48.162;11.536;2023-08-24T10:21:57;8.68;;;5.45;;
25069;SDS011;13064;48.162;11.536;2023-08-24T10:24:27;9.80;;;6.32;;
25069;SDS011;13064;48.162;11.536;2023-08-24T10:26:55;7.65;;;6.05;;
25069;SDS011;13064;48.162;11.536;2023-08-24T10:29:25;9.82;;;5.90;;
25069;SDS011;13064;48.162;11.536;2023-08-24T10:31:54;8.32;;;5.50;;
25069;SDS011;13064;48.162;11.536;2023-08-24T10:34:22;10.90;;;5.80;;
25069;SDS011;13064;48.162;11.536;2023-08-24T10:36:50;9.27;;;6.35;;
25069;SDS011;13064;48.162;11.536;2023-08-24T10:39:18;11.90;;;5.88;;
25069;SDS011;13064;48.162;11.536;2023-08-24T10:41:54;8.27;;;5.28;;
25069;SDS011;13064;48.162;11.536;2023-08-24T10:44:33;11.52;;;5.55;;
25069;SDS011;13064;48.162;11.536;2023-08-24T10:49:39;7.47;;;5.40;;
25069;SDS011;13064;48.162;11.536;2023-08-24T10:52:17;7.13;;;4.80;;
25069;SDS011;13064;48.162;11.536;2023-08-24T10:54:46;10.15;;;5.68;;
25069;SDS011;13064;48.162;11.536;2023-08-24T11:05:24;10.30;;;5.07;;
25069;SDS011;13064;48.162;11.536;2023-08-24T11:11:30;10.90;;;5.07;;
25069;SDS011;13064;48.162;11.536;2023-08-24T11:14:13;10.75;;;4.85;;
25069;SDS011;13064;48.162;11.536;2023-08-24T11:27:41;9.00;;;5.38;;
25069;SDS011;13064;48.162;11.536;2023-08-24T11:32:41;13.15;;;5.53;;
25069;SDS011;13064;48.162;11.536;2023-08-24T11:35:10;8.65;;;5.40;;
25069;SDS011;13064;48.162;11.536;2023-08-24T11:44:45;7.38;;;4.97;;
25069;SDS011;13064;48.162;11.536;2023-08-24T11:59:38;19.65;;;4.78;;
25069;SDS011;13064;48.162;11.536;2023-08-24T12:10:06;7.32;;;3.63;;
25069;SDS011;13064;48.162;11.536;2023-08-24T12:12:34;6.85;;;3.05;;
25069;SDS011;13064;48.162;11.536;2023-08-24T12:15:02;8.77;;;3.13;;
25069;SDS011;13064;48.162;11.536;2023-08-24T12:17:30;7.97;;;3.72;;
25069;SDS011;13064;48.162;11.536;2023-08-24T12:19:59;9.05;;;3.40;;
25069;SDS011;13064;48.162;11.536;2023-08-24T12:22:27;9.18;;;3.63;;
25069;SDS011;13064;48.162;11.536;2023-08-24T12:24:56;13.57;;;3.90;;
25069;SDS011;13064;48.162;11.536;2023-08-24T12:27:25;12.25;;;3.50;;
25069;SDS011;13064;48.162;11.536;2023-08-24T12:29:53;10.57;;;3.57;;
25069;SDS011;13064;48.162;11.536;2023-08-24T12:32:21;18.27;;;3.58;;
25069;SDS011;13064;48.162;11.536;2023-08-24T12:38:52;15.60;;;3.45;;
25069;SDS011;13064;48.162;11.536;2023-08-24T12:41:20;10.00;;;3.22;;
25069;SDS011;13064;48.162;11.536;2023-08-24T12:50:54;9.40;;;4.03;;
25069;SDS011;13064;48.162;11.536;2023-08-24T12:53:21;10.57;;;3.90;;
25069;SDS011;13064;48.162;11.536;2023-08-24T12:55:49;9.77;;;4.00;;
25069;SDS011;13064;48.162;11.536;2023-08-24T12:58:17;13.80;;;3.85;;
25069;SDS011;13064;48.162;11.536;2023-08-24T13:00:46;9.25;;;3.88;;
25069;SDS011;13064;48.162;11.536;2023-08-24T13:03:15;9.13;;;3.90;;
25069;SDS011;13064;48.162;11.536;2023-08-24T13:05:43;12.73;;;4.15;;
25069;SDS011;13064;48.162;11.536;2023-08-24T13:08:11;9.80;;;3.83;;
25069;SDS011;13064;48.162;11.536;2023-08-24T13:10:38;13.15;;;3.88;;
25069;SDS011;13064;48.162;11.536;2023-08-24T13:13:06;8.95;;;3.90;;
25069;SDS011;13064;48.162;11.536;2023-08-24T13:15:33;11.05;;;4.53;;
25069;SDS011;13064;48.162;11.536;2023-08-24T13:18:01;11.48;;;4.13;;
25069;SDS011;13064;48.162;11.536;2023-08-24T13:20:29;10.75;;;4.18;;
25069;SDS011;13064;48.162;11.536;2023-08-24T13:22:57;15.65;;;3.88;;
25069;SDS011;13064;48.162;11.536;2023-08-24T13:25:24;14.07;;;3.97;;
25069;SDS011;13064;48.162;11.536;2023-08-24T13:27:52;12.40;;;4.10;;
25069;SDS011;13064;48.162;11.536;2023-08-24T13:30:20;9.88;;;3.78;;
25069;SDS011;13064;48.162;11.536;2023-08-24T13:32:47;12.15;;;3.80;;
25069;SDS011;13064;48.162;11.536;2023-08-24T13:35:16;10.23;;;3.78;;
25069;SDS011;13064;48.162;11.536;2023-08-24T13:37:43;13.70;;;3.80;;
25069;SDS011;13064;48.162;11.536;2023-08-24T13:40:11;10.20;;;4.40;;
25069;SDS011;13064;48.162;11.536;2023-08-24T13:42:38;11.20;;;4.00;;
25069;SDS011;13064;48.162;11.536;2023-08-24T13:45:06;9.50;;;4.25;;
25069;SDS011;13064;48.162;11.536;2023-08-24T13:47:34;12.55;;;4.22;;
25069;SDS011;13064;48.162;11.536;2023-08-24T13:50:02;10.68;;;4.30;;
25069;SDS011;13064;48.162;11.536;2023-08-24T13:52:30;13.70;;;4.75;;
25069;SDS011;13064;48.162;11.536;2023-08-24T13:54:57;12.95;;;4.32;;
25069;SDS011;13064;48.162;11.536;2023-08-24T13:57:38;14.55;;;4.22;;
25069;SDS011;13064;48.162;11.536;2023-08-24T14:00:05;15.73;;;4.85;;
25069;SDS011;13064;48.162;11.536;2023-08-24T14:02:39;9.63;;;4.43;;
25069;SDS011;13064;48.162;11.536;2023-08-24T14:05:07;11.35;;;4.72;;
25069;SDS011;13064;48.162;11.536;2023-08-24T14:07:36;12.52;;;4.97;;
25069;SDS011;13064;48.162;11.536;2023-08-24T14:10:04;13.38;;;4.30;;
25069;SDS011;13064;48.162;11.536;2023-08-24T14:12:33;12.15;;;4.32;;
25069;SDS011;13064;48.162;11.536;2023-08-24T14:15:01;12.38;;;4.65;;
25069;SDS011;13064;48.162;11.536;2023-08-24T14:17:28;13.15;;;4.45;;
25069;SDS011;13064;48.162;11.536;2023-08-24T14:19:56;14.98;;;4.40;;
25069;SDS011;13064;48.162;11.536;2023-08-24T14:22:25;13.88;;;5.50;;
25069;SDS011;13064;48.162;11.536;2023-08-24T14:24:52;10.07;;;5.00;;
25069;SDS011;13064;48.162;11.536;2023-08-24T14:27:20;15.77;;;4.78;;
25069;SDS011;13064;48.162;11.536;2023-08-24T14:29:48;17.00;;;4.40;;
25069;SDS011;13064;48.162;11.536;2023-08-24T14:32:15;11.88;;;4.38;;
25069;SDS011;13064;48.162;11.536;2023-08-24T14:34:44;12.88;;;4.78;;
25069;SDS011;13064;48.162;11.536;2023-08-24T14:37:11;13.02;;;5.10;;
25069;SDS011;13064;48.162;11.536;2023-08-24T14:39:39;10.77;;;5.03;;
25069;SDS011;13064;48.162;11.536;2023-08-24T14:42:07;14.63;;;5.22;;
25069;SDS011;13064;48.162;11.536;2023-08-24T14:44:34;17.95;;;4.90;;
25069;SDS011;13064;48.162;11.536;2023-08-24T14:47:02;13.23;;;4.68;;
25069;SDS011;13064;48.162;11.536;2023-08-24T14:49:30;15.35;;;5.07;;
25069;SDS011;13064;48.162;11.536;2023-08-24T14:51:58;16.30;;;5.10;;
25069;SDS011;13064;48.162;11.536;2023-08-24T14:54:25;17.85;;;5.18;;
25069;SDS011;13064;48.162;11.536;2023-08-24T14:56:53;12.25;;;4.80;;
25069;SDS011;13064;48.162;11.536;2023-08-24T14:59:21;13.30;;;5.15;;
25069;SDS011;13064;48.162;11.536;2023-08-24T15:01:49;17.27;;;5.10;;
25069;SDS011;13064;48.162;11.536;2023-08-24T15:04:17;14.55;;;5.28;;
25069;SDS011;13064;48.162;11.536;2023-08-24T15:06:44;11.32;;;4.72;;
25069;SDS011;13064;48.162;11.536;2023-08-24T15:09:12;14.13;;;5.25;;
25069;SDS011;13064;48.162;11.536;2023-08-24T15:11:40;13.95;;;5.30;;
25069;SDS011;13064;48.162;11.536;2023-08-24T15:14:07;16.55;;;5.25;;
25069;SDS011;13064;48.162;11.536;2023-08-24T15:16:35;11.63;;;4.70;;
25069;SDS011;13064;48.162;11.536;2023-08-24T15:19:03;15.55;;;5.32;;
25069;SDS011;13064;48.162;11.536;2023-08-24T15:21:30;10.00;;;5.10;;
25069;SDS011;13064;48.162;11.536;2023-08-24T15:23:58;12.23;;;5.55;;
25069;SDS011;13064;48.162;11.536;2023-08-24T15:26:25;10.48;;;4.55;;
25069;SDS011;13064;48.162;11.536;2023-08-24T15:31:39;13.65;;;5.07;;
25069;SDS011;13064;48.162;11.536;2023-08-24T15:34:08;11.82;;;5.10;;
25069;SDS011;13064;48.162;11.536;2023-08-24T15:36:35;14.00;;;5.13;;
25069;SDS011;13064;48.162;11.536;2023-08-24T15:39:03;13.38;;;5.15;;
25069;SDS011;13064;48.162;11.536;2023-08-24T15:41:31;13.13;;;5.20;;
25069;SDS011;13064;48.162;11.536;2023-08-24T15:43:58;12.23;;;4.88;;
25069;SDS011;13064;48.162;11.536;2023-08-24T15:46:26;12.82;;;4.82;;
25069;SDS011;13064;48.162;11.536;2023-08-24T15:48:54;8.70;;;4.97;;
25069;SDS011;13064;48.162;11.536;2023-08-24T15:51:22;10.80;;;5.22;;
25069;SDS011;13064;48.162;11.536;2023-08-24T15:53:50;13.95;;;5.47;;
25069;SDS011;13064;48.162;11.536;2023-08-24T15:56:18;10.80;;;5.72;;
25069;SDS011;13064;48.162;11.536;2023-08-24T15:58:45;20.38;;;6.40;;
25069;SDS011;13064;48.162;11.536;2023-08-24T16:01:13;10.40;;;5.55;;
25069;SDS011;13064;48.162;11.536;2023-08-24T16:03:41;15.60;;;6.20;;
25069;SDS011;13064;48.162;11.536;2023-08-24T16:06:09;13.50;;;6.07;;
25069;SDS011;13064;48.162;11.536;2023-08-24T16:08:36;11.18;;;5.75;;
25069;SDS011;13064;48.162;11.536;2023-08-24T16:11:04;10.48;;;5.38;;
25069;SDS011;13064;48.162;11.536;2023-08-24T16:13:33;14.82;;;5.60;;
25069;SDS011;13064;48.162;11.536;2023-08-24T16:16:00;14.07;;;5.70;;
25069;SDS011;13064;48.162;11.536;2023-08-24T16:18:28;8.13;;;5.03;;
25069;SDS011;13064;48.162;11.536;2023-08-24T16:20:56;11.10;;;5.78;;
25069;SDS011;13064;48.162;11.536;2023-08-24T16:23:23;9.80;;;5.60;;
25069;SDS011;13064;48.162;11.536;2023-08-24T16:25:52;14.20;;;5.70;;
25069;SDS011;13064;48.162;11.536;2023-08-24T16:28:20;13.27;;;5.97;;
25069;SDS011;13064;48.162;11.536;2023-08-24T16:30:47;8.38;;;4.95;;
25069;SDS011;13064;48.162;11.536;2023-08-24T16:33:18;11.10;;;5.18;;
25069;SDS011;13064;48.162;11.536;2023-08-24T16:35:46;17.42;;;6.00;;
25069;SDS011;13064;48.162;11.536;2023-08-24T16:38:14;12.13;;;5.45;;
25069;SDS011;13064;48.162;11.536;2023-08-24T16:40:42;11.55;;;5.72;;
25069;SDS011;13064;48.162;11.536;2023-08-24T16:43:10;21.35;;;5.78;;
25069;SDS011;13064;48.162;11.536;2023-08-24T16:45:38;11.30;;;5.50;;
25069;SDS011;13064;48.162;11.536;2023-08-24T16:48:06;9.70;;;5.50;;
25069;SDS011;13064;48.162;11.536;2023-08-24T16:50:33;8.93;;;5.50;;
25069;SDS011;13064;48.162;11.536;2023-08-24T17:01:07;14.10;;;5.88;;
25069;SDS011;13064;48.162;11.536;2023-08-24T17:07:39;11.52;;;6.32;;
25069;SDS011;13064;48.162;11.536;2023-08-24T17:14:02;12.70;;;5.93;;
25069;SDS011;13064;48.162;11.536;2023-08-24T17:16:29;10.50;;;6.07;;
25069;SDS011;13064;48.162;11.536;2023-08-24T17:18:57;11.15;;;6.55;;
25069;SDS011;13064;48.162;11.536;2023-08-24T17:21:25;13.75;;;6.22;;
25069;SDS011;13064;48.162;11.536;2023-08-24T17:23:52;17.85;;;6.38;;
25069;SDS011;13064;48.162;11.536;2023-08-24T17:26:20;12.75;;;7.40;;
25069;SDS011;13064;48.162;11.536;2023-08-24T17:28:49;16.13;;;6.55;;
25069;SDS011;13064;48.162;11.536;2023-08-24T17:31:17;12.95;;;6.28;;
25069;SDS011;13064;48.162;11.536;2023-08-24T17:33:44;17.20;;;6.32;;
25069;SDS011;13064;48.162;11.536;2023-08-24T17:36:12;8.85;;;6.25;;
25069;SDS011;13064;48.162;11.536;2023-08-24T17:38:40;12.55;;;6.85;;
25069;SDS011;13064;48.162;11.536;2023-08-24T17:41:07;9.57;;;5.97;;
25069;SDS011;13064;48.162;11.536;2023-08-24T17:43:35;10.07;;;5.93;;
25069;SDS011;13064;48.162;11.536;2023-08-24T17:46:07;10.30;;;6.57;;
25069;SDS011;13064;48.162;11.536;2023-08-24T17:48:35;11.73;;;6.68;;
25069;SDS011;13064;48.162;11.536;2023-08-24T17:51:02;14.57;;;6.68;;
25069;SDS011;13064;48.162;11.536;2023-08-24T17:53:33;9.38;;;6.18;;
25069;SDS011;13064;48.162;11.536;2023-08-24T17:56:01;14.05;;;6.35;;